Forside
METAR-TAF:

METAR-TAF

Lufthavne :

Bristol Airport

Bristol, England

Breddekreds: 51-23N, længdekreds: 002-43W, højde: 189 m

Aktuelle vejr

Denne rapport blev lavet for 45 minutter siden, kl. 12:50 UTC
Vind 15 kt fra østnordøst
Temperatur 10°C
Fugtighed 50%
Tryk 1031 hPa
Sigt 10 km eller mere
Brudte skyer i en højde af 3500 ft

METAR: EGGD 311250Z AUTO 06015KT 9999 BKN035 10/M00 Q1031

Tid: 14:35 (13:35 UTC)

Vejrudsigter

Denne rapport blev lavet for 2 timer og 34 minutter siden, kl. 11:01 UTC
Foreløbig gælder fra 31 på 12 UTC til 01 på 12 UTC
Vind 13 kt fra nordøst
Sigt 10 km eller mere
Spredte skyer i en højde af 3000 ft
ændring
fra 01 på 00 UTC til 01 på 03 UTC
Vind 5 kt fra varierende retninger

TAF: EGGD 311101Z 3112/0112 04013KT 9999 SCT030 BECMG 0100/0103 VRB05KT

Vejrobservationer og prognoser fra mere end 4000 lufthavne (METAR og TAF).

De gule og røde prikker repræsenterer de meteorologiske stationer.

Flyt musen over at se navnet på stationen.

Så klik over at se vejr observationer og prognoser.

At skifte det kort: Klik på de grønne knapper med et sort kors for at zoome ind; på den grønne knap med en bindestreg for at zoome ud; eller på de grønne pile for tilstødende kort.


METAR-TAF: